EST,Max TemperatureF,Mean TemperatureF,Min TemperatureF,Max Dew PointF,MeanDew PointF,Min DewpointF,Max Humidity, Mean Humidity, Min Humidity, Max Sea Level PressureIn, Mean Sea Level PressureIn, Min Sea Level PressureIn, Max VisibilityMiles, Mean VisibilityMiles, Min VisibilityMiles, Max Wind SpeedMPH, Mean Wind SpeedMPH, Max Gust SpeedMPH,PrecipitationIn, CloudCover, Events, WindDirDegrees
2014-2-1,61,42,22,26,21,18,81,51,20,30.26,30.15,30.05,10,10,4,7,2,,0.00,4,,200
2014-2-2,63,51,39,46,38,28,85,62,39,30.05,30.02,29.98,10,10,10,13,5,17,0.00,2,,222
2014-2-3,54,45,36,50,42,32,96,86,76,30.29,30.02,29.85,10,8,2,28,7,33,0.63,7,Rain,39
2014-2-4,44,38,32,37,32,28,89,74,58,30.42,30.28,30.12,10,8,2,12,5,17,0.12,7,Rain,56
2014-2-5,56,46,35,45,35,25,92,71,50,30.10,29.91,29.75,10,5,1,22,8,29,0.03,6,Rain,296
2014-2-6,43,38,32,27,21,18,64,50,36,30.32,30.25,30.15,10,10,10,17,4,23,0.00,2,,349
2014-2-7,46,36,26,26,24,22,84,65,45,30.35,30.29,30.26,10,10,10,9,2,13,0.00,1,,304
2014-2-8,46,38,30,28,25,22,85,64,42,30.29,30.21,30.14,10,10,10,13,2,15,0.00,4,,33
2014-2-9,54,42,29,38,31,25,85,70,54,30.17,30.07,29.95,10,10,9,14,4,18,0.00,7,,261
2014-2-10,43,38,32,30,25,17,75,62,48,30.25,30.15,30.02,10,10,10,12,4,15,0.00,5,,13
2014-2-11,35,28,21,20,15,12,71,56,41,30.41,30.33,30.25,10,10,10,14,5,17,0.00,3,,48
2014-2-12,27,24,20,19,16,9,88,67,46,30.45,30.21,29.88,10,4,0,21,10,25,0.34,5,Fog-Snow,41
2014-2-13,40,32,24,32,28,19,89,74,59,29.87,29.60,29.45,10,4,1,21,11,28,0.41,7,Rain-Snow,349
2014-2-14,54,41,27,30,23,21,69,49,28,29.74,29.70,29.62,10,10,10,22,9,26,0.00,1,,221
2014-2-15,44,38,31,36,27,14,92,65,37,30.04,29.72,29.56,10,8,1,29,10,39,0.09,4,Rain,299
2014-2-16,48,39,29,26,21,14,58,48,38,30.17,30.06,29.99,10,10,10,20,8,25,T,3,,270
2014-2-17,44,36,27,22,20,18,69,54,39,30.40,30.28,30.19,10,10,10,13,4,17,0.00,1,,59
2014-2-18,60,46,32,30,26,19,75,49,23,30.19,30.13,30.06,10,10,10,20,6,24,0.00,2,,221
2014-2-19,70,55,40,55,45,25,86,66,45,30.06,29.94,29.85,10,9,3,23,7,31,0.06,5,Rain,237
2014-2-20,67,55,43,46,38,32,76,60,44,30.20,30.08,29.95,10,10,10,12,3,16,0.00,2,,65
2014-2-21,68,52,36,59,47,25,83,61,39,30.01,29.85,29.77,10,10,2,33,9,39,0.15,5,Rain-Thunderstorm,230
2014-2-22,65,48,31,34,26,19,85,52,19,30.19,30.10,30.04,10,10,10,13,3,16,0.00,0,,209
2014-2-23,70,51,32,35,30,26,82,53,24,30.07,29.96,29.85,10,10,10,18,5,23,0.00,0,,215
2014-2-24,57,45,32,33,21,11,65,43,20,30.13,30.04,29.90,10,10,10,22,9,29,0.00,0,,329
2014-2-25,51,39,27,22,18,11,69,46,22,30.10,30.03,29.96,10,10,10,17,4,22,0.00,3,,13
2014-2-26,49,39,28,23,18,12,66,50,33,29.98,29.89,29.79,10,10,10,18,6,21,0.00,3,,353
2014-2-27,52,36,19,16,10,2,77,45,13,30.03,29.84,29.73,10,10,10,23,9,31,0.00,1,,281
2014-2-28,41,33,24,13,9,7,50,39,27,30.34,30.25,30.04,10,10,10,16,7,23,0.00,0,,57